sensor_id;sensor_type;location;lat;lon;timestamp;pressure;altitude;pressure_sealevel;temperature;humidity
72024;BME280;59889;50.700;5.440;2023-12-20T00:01:25;100121.30;;;19.73;34.09
72024;BME280;59889;50.700;5.440;2023-12-20T00:03:50;100119.22;;;19.16;34.20
72024;BME280;59889;50.700;5.440;2023-12-20T00:06:15;100126.39;;;19.46;34.15
72024;BME280;59889;50.700;5.440;2023-12-20T00:08:40;100135.63;;;19.40;34.21
72024;BME280;59889;50.700;5.440;2023-12-20T00:11:05;100140.87;;;19.14;34.25
72024;BME280;59889;50.700;5.440;2023-12-20T00:13:30;100142.94;;;19.37;34.25
72024;BME280;59889;50.700;5.440;2023-12-20T00:15:55;100149.00;;;19.02;34.38
72024;BME280;59889;50.700;5.440;2023-12-20T00:18:20;100154.69;;;19.38;34.26
72024;BME280;59889;50.700;5.440;2023-12-20T00:20:45;100157.29;;;19.39;34.23
72024;BME280;59889;50.700;5.440;2023-12-20T00:23:11;100160.97;;;19.43;34.19
72024;BME280;59889;50.700;5.440;2023-12-20T00:25:36;100161.07;;;19.66;34.22
72024;BME280;59889;50.700;5.440;2023-12-20T00:28:01;100163.22;;;19.30;34.07
72024;BME280;59889;50.700;5.440;2023-12-20T00:30:26;100166.94;;;19.64;34.23
72024;BME280;59889;50.700;5.440;2023-12-20T00:32:51;100177.71;;;19.14;34.28
72024;BME280;59889;50.700;5.440;2023-12-20T00:35:16;100182.35;;;19.11;34.29
72024;BME280;59889;50.700;5.440;2023-12-20T00:37:42;100185.81;;;19.71;34.14
72024;BME280;59889;50.700;5.440;2023-12-20T00:40:07;100188.13;;;19.31;34.32
72024;BME280;59889;50.700;5.440;2023-12-20T00:42:31;100193.57;;;19.28;34.37
72024;BME280;59889;50.700;5.440;2023-12-20T00:44:56;100191.98;;;19.22;34.18
72024;BME280;59889;50.700;5.440;2023-12-20T00:47:21;100195.09;;;19.38;34.25
72024;BME280;59889;50.700;5.440;2023-12-20T00:49:46;100201.51;;;19.20;34.19
72024;BME280;59889;50.700;5.440;2023-12-20T00:52:12;100189.34;;;19.37;34.30
72024;BME280;59889;50.700;5.440;2023-12-20T00:54:37;100185.28;;;19.53;34.09
72024;BME280;59889;50.700;5.440;2023-12-20T00:57:03;100194.22;;;19.27;34.11
72024;BME280;59889;50.700;5.440;2023-12-20T00:59:27;100195.29;;;19.46;34.14
72024;BME280;59889;50.700;5.440;2023-12-20T01:01:52;100181.88;;;19.40;34.20
72024;BME280;59889;50.700;5.440;2023-12-20T01:04:17;100178.93;;;19.17;34.23
72024;BME280;59889;50.700;5.440;2023-12-20T01:06:42;100192.02;;;19.48;34.15
72024;BME280;59889;50.700;5.440;2023-12-20T01:09:07;100201.95;;;19.25;34.12
72024;BME280;59889;50.700;5.440;2023-12-20T01:11:33;100201.74;;;19.61;34.27
72024;BME280;59889;50.700;5.440;2023-12-20T01:13:57;100192.24;;;19.17;34.21
72024;BME280;59889;50.700;5.440;2023-12-20T01:16:22;100195.96;;;19.41;34.22
72024;BME280;59889;50.700;5.440;2023-12-20T01:18:48;100197.27;;;19.50;34.11
72024;BME280;59889;50.700;5.440;2023-12-20T01:21:13;100196.22;;;19.71;34.17
72024;BME280;59889;50.700;5.440;2023-12-20T01:23:38;100192.76;;;19.45;34.20
72024;BME280;59889;50.700;5.440;2023-12-20T01:26:03;100182.23;;;19.39;34.27
72024;BME280;59889;50.700;5.440;2023-12-20T01:28:28;100181.90;;;19.73;34.15
72024;BME280;59889;50.700;5.440;2023-12-20T01:30:53;100188.88;;;19.29;34.09
72024;BME280;59889;50.700;5.440;2023-12-20T01:33:18;100186.81;;;19.74;34.12
72024;BME280;59889;50.700;5.440;2023-12-20T01:35:44;100187.02;;;19.43;34.22
72024;BME280;59889;50.700;5.440;2023-12-20T01:38:09;100184.03;;;19.64;34.27
72024;BME280;59889;50.700;5.440;2023-12-20T01:40:34;100183.83;;;19.38;34.27
72024;BME280;59889;50.700;5.440;2023-12-20T01:42:59;100184.80;;;19.36;34.32
72024;BME280;59889;50.700;5.440;2023-12-20T01:45:24;100184.00;;;19.33;34.34
72024;BME280;59889;50.700;5.440;2023-12-20T01:47:50;100194.55;;;19.42;34.26
72024;BME280;59889;50.700;5.440;2023-12-20T01:50:15;100197.44;;;19.63;34.29
72024;BME280;59889;50.700;5.440;2023-12-20T01:52:39;100195.97;;;19.20;34.45
72024;BME280;59889;50.700;5.440;2023-12-20T01:55:06;100194.70;;;19.52;34.43
72024;BME280;59889;50.700;5.440;2023-12-20T01:57:30;100203.88;;;19.65;34.24
72024;BME280;59889;50.700;5.440;2023-12-20T01:59:55;100208.21;;;19.65;34.27
72024;BME280;59889;50.700;5.440;2023-12-20T02:02:20;100207.16;;;19.45;34.26
72024;BME280;59889;50.700;5.440;2023-12-20T02:04:45;100212.99;;;19.31;34.42
72024;BME280;59889;50.700;5.440;2023-12-20T02:07:11;100217.76;;;19.61;34.33
72024;BME280;59889;50.700;5.440;2023-12-20T02:09:35;100217.69;;;19.61;34.34
72024;BME280;59889;50.700;5.440;2023-12-20T02:12:00;100214.22;;;19.35;34.36
72024;BME280;59889;50.700;5.440;2023-12-20T02:14:25;100210.36;;;19.52;34.45
72024;BME280;59889;50.700;5.440;2023-12-20T02:16:50;100217.38;;;19.12;34.37
72024;BME280;59889;50.700;5.440;2023-12-20T02:19:15;100220.28;;;19.38;34.34
72024;BME280;59889;50.700;5.440;2023-12-20T02:21:40;100215.99;;;19.23;34.50
72024;BME280;59889;50.700;5.440;2023-12-20T02:24:06;100205.90;;;19.21;34.53
72024;BME280;59889;50.700;5.440;2023-12-20T02:26:31;100210.86;;;19.52;34.44
72024;BME280;59889;50.700;5.440;2023-12-20T02:28:56;100211.38;;;19.26;34.48
72024;BME280;59889;50.700;5.440;2023-12-20T02:31:21;100215.22;;;19.56;34.40
72024;BME280;59889;50.700;5.440;2023-12-20T02:33:46;100215.29;;;19.01;34.46
72024;BME280;59889;50.700;5.440;2023-12-20T02:36:11;100219.21;;;19.48;34.46
72024;BME280;59889;50.700;5.440;2023-12-20T02:38:36;100217.75;;;19.65;34.30
72024;BME280;59889;50.700;5.440;2023-12-20T02:41:01;100215.84;;;19.67;34.27
72024;BME280;59889;50.700;5.440;2023-12-20T02:43:26;100212.32;;;19.67;34.28
72024;BME280;59889;50.700;5.440;2023-12-20T02:45:51;100207.99;;;19.53;34.44
72024;BME280;59889;50.700;5.440;2023-12-20T02:48:17;100208.56;;;19.42;34.56
72024;BME280;59889;50.700;5.440;2023-12-20T02:50:41;100209.64;;;19.04;34.44
72024;BME280;59889;50.700;5.440;2023-12-20T02:53:06;100212.33;;;19.55;34.42
72024;BME280;59889;50.700;5.440;2023-12-20T02:55:32;100208.60;;;19.05;34.42
72024;BME280;59889;50.700;5.440;2023-12-20T02:57:58;100207.52;;;19.25;34.48
72024;BME280;59889;50.700;5.440;2023-12-20T03:00:22;100211.92;;;19.22;34.51
72024;BME280;59889;50.700;5.440;2023-12-20T03:02:47;100216.96;;;18.93;34.57
72024;BME280;59889;50.700;5.440;2023-12-20T03:05:12;100222.80;;;19.21;34.53
72024;BME280;59889;50.700;5.440;2023-12-20T03:07:37;100219.72;;;19.41;34.31
72024;BME280;59889;50.700;5.440;2023-12-20T03:10:04;100216.86;;;19.01;34.49
72024;BME280;59889;50.700;5.440;2023-12-20T03:12:27;100214.76;;;19.35;34.37
72024;BME280;59889;50.700;5.440;2023-12-20T03:14:52;100212.45;;;19.45;34.25
72024;BME280;59889;50.700;5.440;2023-12-20T03:17:17;100214.77;;;19.43;34.53
72024;BME280;59889;50.700;5.440;2023-12-20T03:19:42;100223.16;;;19.23;34.49
72024;BME280;59889;50.700;5.440;2023-12-20T03:22:08;100224.73;;;19.47;34.51
72024;BME280;59889;50.700;5.440;2023-12-20T03:24:33;100226.76;;;19.52;34.45
72024;BME280;59889;50.700;5.440;2023-12-20T03:26:58;100227.15;;;19.44;34.24
72024;BME280;59889;50.700;5.440;2023-12-20T03:29:23;100223.02;;;19.49;34.48
72024;BME280;59889;50.700;5.440;2023-12-20T03:31:48;100216.86;;;19.41;34.30
72024;BME280;59889;50.700;5.440;2023-12-20T03:34:14;100217.15;;;19.09;34.38
72024;BME280;59889;50.700;5.440;2023-12-20T03:36:40;100210.62;;;19.13;34.60
72024;BME280;59889;50.700;5.440;2023-12-20T03:39:03;100206.05;;;18.95;34.53
72024;BME280;59889;50.700;5.440;2023-12-20T03:41:28;100207.03;;;19.40;34.58
72024;BME280;59889;50.700;5.440;2023-12-20T03:43:53;100203.93;;;18.83;34.68
72024;BME280;59889;50.700;5.440;2023-12-20T03:46:18;100211.28;;;19.21;34.51
72024;BME280;59889;50.700;5.440;2023-12-20T03:48:43;100209.86;;;19.23;34.50
72024;BME280;59889;50.700;5.440;2023-12-20T03:51:09;100202.03;;;19.16;34.57
72024;BME280;59889;50.700;5.440;2023-12-20T03:53:34;100203.70;;;19.13;34.60
72024;BME280;59889;50.700;5.440;2023-12-20T03:55:59;100208.62;;;19.14;34.59
72024;BME280;59889;50.700;5.440;2023-12-20T03:58:24;100211.97;;;19.25;34.46
72024;BME280;59889;50.700;5.440;2023-12-20T04:00:49;100216.77;;;19.50;34.45
72024;BME280;59889;50.700;5.440;2023-12-20T04:03:14;100214.09;;;19.21;34.49
72024;BME280;59889;50.700;5.440;2023-12-20T04:05:39;100210.15;;;19.15;34.59
72024;BME280;59889;50.700;5.440;2023-12-20T04:08:05;100202.33;;;18.83;34.68
72024;BME280;59889;50.700;5.440;2023-12-20T04:10:29;100196.93;;;18.97;34.51
72024;BME280;59889;50.700;5.440;2023-12-20T04:12:54;100204.52;;;19.45;34.50
72024;BME280;59889;50.700;5.440;2023-12-20T04:15:20;100202.99;;;19.37;34.58
72024;BME280;59889;50.700;5.440;2023-12-20T04:17:45;100202.49;;;19.27;34.42
72024;BME280;59889;50.700;5.440;2023-12-20T04:20:11;100208.78;;;18.99;34.46
72024;BME280;59889;50.700;5.440;2023-12-20T04:22:35;100212.57;;;19.21;34.51
72024;BME280;59889;50.700;5.440;2023-12-20T04:25:00;100212.20;;;19.26;34.44
72024;BME280;59889;50.700;5.440;2023-12-20T04:27:25;100210.74;;;19.03;34.69
72024;BME280;59889;50.700;5.440;2023-12-20T04:29:50;100215.50;;;18.87;34.61
72024;BME280;59889;50.700;5.440;2023-12-20T04:32:16;100220.64;;;19.10;34.62
72024;BME280;59889;50.700;5.440;2023-12-20T04:34:40;100216.49;;;19.43;34.49
72024;BME280;59889;50.700;5.440;2023-12-20T04:37:05;100216.13;;;19.28;34.40
72024;BME280;59889;50.700;5.440;2023-12-20T04:39:31;100220.11;;;19.15;34.56
72024;BME280;59889;50.700;5.440;2023-12-20T04:41:56;100220.26;;;18.90;34.57
72024;BME280;59889;50.700;5.440;2023-12-20T04:44:21;100217.93;;;19.41;34.55
72024;BME280;59889;50.700;5.440;2023-12-20T04:46:46;100224.99;;;19.40;34.56
72024;BME280;59889;50.700;5.440;2023-12-20T04:49:11;100226.84;;;19.29;34.41
72024;BME280;59889;50.700;5.440;2023-12-20T04:51:36;100227.71;;;19.20;34.52
72024;BME280;59889;50.700;5.440;2023-12-20T04:54:01;100231.75;;;19.04;34.69
72024;BME280;59889;50.700;5.440;2023-12-20T04:56:26;100234.17;;;19.14;34.57
72024;BME280;59889;50.700;5.440;2023-12-20T04:58:51;100234.47;;;19.09;34.63
72024;BME280;59889;50.700;5.440;2023-12-20T05:01:17;100235.37;;;19.38;34.57
72024;BME280;59889;50.700;5.440;2023-12-20T05:03:41;100232.04;;;19.22;34.74
72024;BME280;59889;50.700;5.440;2023-12-20T05:06:07;100238.11;;;19.45;34.51
72024;BME280;59889;50.700;5.440;2023-12-20T05:08:32;100233.89;;;19.41;34.54
72024;BME280;59889;50.700;5.440;2023-12-20T05:10:57;100228.93;;;19.33;34.63
72024;BME280;59889;50.700;5.440;2023-12-20T05:13:22;100230.80;;;19.04;34.71
72024;BME280;59889;50.700;5.440;2023-12-20T05:15:47;100224.30;;;19.15;34.57
72024;BME280;59889;50.700;5.440;2023-12-20T05:18:12;100221.09;;;19.42;34.54
72024;BME280;59889;50.700;5.440;2023-12-20T05:20:37;100220.39;;;19.46;34.48
72024;BME280;59889;50.700;5.440;2023-12-20T05:23:02;100219.28;;;18.97;34.49
72024;BME280;59889;50.700;5.440;2023-12-20T05:25:27;100216.25;;;19.15;34.58
72024;BME280;59889;50.700;5.440;2023-12-20T05:27:52;100211.32;;;19.32;34.35
72024;BME280;59889;50.700;5.440;2023-12-20T05:30:17;100214.03;;;19.37;34.29
72024;BME280;59889;50.700;5.440;2023-12-20T05:32:42;100220.85;;;19.23;34.45
72024;BME280;59889;50.700;5.440;2023-12-20T05:35:08;100217.11;;;19.26;34.13
72024;BME280;59889;50.700;5.440;2023-12-20T05:37:33;100220.96;;;18.99;34.08
72024;BME280;59889;50.700;5.440;2023-12-20T05:39:58;100216.97;;;18.98;33.78
72024;BME280;59889;50.700;5.440;2023-12-20T05:42:23;100211.97;;;18.91;33.66
72024;BME280;59889;50.700;5.440;2023-12-20T05:44:48;100213.26;;;19.08;33.50
72024;BME280;59889;50.700;5.440;2023-12-20T05:47:13;100214.08;;;19.10;33.21
72024;BME280;59889;50.700;5.440;2023-12-20T05:49:38;100215.57;;;18.93;33.24
72024;BME280;59889;50.700;5.440;2023-12-20T05:52:04;100221.85;;;18.87;33.27
72024;BME280;59889;50.700;5.440;2023-12-20T05:54:28;100221.85;;;18.76;32.99
72024;BME280;59889;50.700;5.440;2023-12-20T05:56:53;100233.16;;;18.96;32.78
72024;BME280;59889;50.700;5.440;2023-12-20T05:59:19;100239.44;;;18.74;32.86
72024;BME280;59889;50.700;5.440;2023-12-20T06:01:44;100241.34;;;18.84;32.81
72024;BME280;59889;50.700;5.440;2023-12-20T06:04:09;100242.76;;;18.53;32.67
72024;BME280;59889;50.700;5.440;2023-12-20T06:06:40;100251.36;;;18.54;32.50
72024;BME280;59889;50.700;5.440;2023-12-20T06:09:00;100247.16;;;18.97;32.47
72024;BME280;59889;50.700;5.440;2023-12-20T06:11:33;100247.93;;;18.98;32.43
72024;BME280;59889;50.700;5.440;2023-12-20T06:13:51;100245.02;;;18.96;32.29
72024;BME280;59889;50.700;5.440;2023-12-20T06:16:15;100241.67;;;18.93;32.25
72024;BME280;59889;50.700;5.440;2023-12-20T06:18:40;100242.10;;;18.76;32.17
72024;BME280;59889;50.700;5.440;2023-12-20T06:21:05;100239.97;;;18.87;32.29
72024;BME280;59889;50.700;5.440;2023-12-20T06:23:30;100239.09;;;19.03;32.05
72024;BME280;59889;50.700;5.440;2023-12-20T06:25:55;100243.98;;;18.57;32.25
72024;BME280;59889;50.700;5.440;2023-12-20T06:28:20;100244.84;;;18.75;32.27
72024;BME280;59889;50.700;5.440;2023-12-20T06:30:45;100253.43;;;18.71;32.22
72024;BME280;59889;50.700;5.440;2023-12-20T06:33:11;100251.24;;;18.95;31.94
72024;BME280;59889;50.700;5.440;2023-12-20T06:35:36;100253.03;;;19.10;31.72
72024;BME280;59889;50.700;5.440;2023-12-20T06:38:01;100248.06;;;19.02;31.77
72024;BME280;59889;50.700;5.440;2023-12-20T06:40:26;100246.33;;;18.70;31.91
72024;BME280;59889;50.700;5.440;2023-12-20T06:42:51;100248.12;;;18.76;31.53
72024;BME280;59889;50.700;5.440;2023-12-20T06:45:16;100252.52;;;18.85;31.59
72024;BME280;59889;50.700;5.440;2023-12-20T06:47:41;100260.12;;;18.67;31.37
72024;BME280;59889;50.700;5.440;2023-12-20T06:50:07;100263.39;;;18.88;31.37
72024;BME280;59889;50.700;5.440;2023-12-20T06:52:32;100260.93;;;18.87;31.25
72024;BME280;59889;50.700;5.440;2023-12-20T06:54:57;100266.72;;;18.75;31.26
72024;BME280;59889;50.700;5.440;2023-12-20T06:57:22;100267.29;;;18.53;31.15
72024;BME280;59889;50.700;5.440;2023-12-20T06:59:47;100272.86;;;18.82;31.15
72024;BME280;59889;50.700;5.440;2023-12-20T07:02:13;100274.52;;;18.85;30.96
72024;BME280;59889;50.700;5.440;2023-12-20T07:04:39;100268.58;;;18.69;31.12
72024;BME280;59889;50.700;5.440;2023-12-20T07:07:03;100270.40;;;18.39;31.10
72024;BME280;59889;50.700;5.440;2023-12-20T07:09:29;100267.53;;;18.71;30.99
72024;BME280;59889;50.700;5.440;2023-12-20T07:11:54;100260.96;;;18.74;31.02
72024;BME280;59889;50.700;5.440;2023-12-20T07:14:19;100255.75;;;18.87;30.92
72024;BME280;59889;50.700;5.440;2023-12-20T07:16:45;100256.70;;;18.87;31.06
72024;BME280;59889;50.700;5.440;2023-12-20T07:19:10;100257.30;;;18.76;31.61
72024;BME280;59889;50.700;5.440;2023-12-20T07:21:35;100257.08;;;18.84;31.66
72024;BME280;59889;50.700;5.440;2023-12-20T07:24:00;100256.42;;;18.67;31.93
72024;BME280;59889;50.700;5.440;2023-12-20T07:26:25;100253.53;;;18.79;31.91
72024;BME280;59889;50.700;5.440;2023-12-20T07:28:50;100250.18;;;18.73;32.03
72024;BME280;59889;50.700;5.440;2023-12-20T07:31:15;100250.81;;;18.54;32.34
72024;BME280;59889;50.700;5.440;2023-12-20T07:33:41;100250.01;;;18.75;32.22
72024;BME280;59889;50.700;5.440;2023-12-20T07:36:06;100250.68;;;18.86;32.28
72024;BME280;59889;50.700;5.440;2023-12-20T07:38:31;100252.60;;;18.97;32.45
72024;BME280;59889;50.700;5.440;2023-12-20T07:40:56;100254.15;;;18.78;32.59
72024;BME280;59889;50.700;5.440;2023-12-20T07:43:21;100256.07;;;18.78;32.84
72024;BME280;59889;50.700;5.440;2023-12-20T07:45:47;100254.92;;;19.03;33.10
72024;BME280;59889;50.700;5.440;2023-12-20T07:48:12;100257.74;;;18.80;33.30
72024;BME280;59889;50.700;5.440;2023-12-20T07:50:37;100264.09;;;19.06;33.01
72024;BME280;59889;50.700;5.440;2023-12-20T07:53:03;100266.16;;;18.80;33.17
72024;BME280;59889;50.700;5.440;2023-12-20T07:55:27;100264.18;;;18.99;33.51
72024;BME280;59889;50.700;5.440;2023-12-20T07:57:53;100262.72;;;18.94;33.77
72024;BME280;59889;50.700;5.440;2023-12-20T08:00:19;100256.77;;;18.95;33.76
72024;BME280;59889;50.700;5.440;2023-12-20T08:02:43;100254.67;;;18.53;33.71
72024;BME280;59889;50.700;5.440;2023-12-20T08:05:09;100254.92;;;19.08;33.66
72024;BME280;59889;50.700;5.440;2023-12-20T08:07:33;100256.25;;;18.93;33.64
72024;BME280;59889;50.700;5.440;2023-12-20T08:09:58;100251.97;;;19.08;33.76
72024;BME280;59889;50.700;5.440;2023-12-20T08:12:23;100252.49;;;19.18;33.65
72024;BME280;59889;50.700;5.440;2023-12-20T08:14:49;100255.27;;;18.81;33.99
72024;BME280;59889;50.700;5.440;2023-12-20T08:17:13;100251.82;;;19.13;33.90
72024;BME280;59889;50.700;5.440;2023-12-20T08:19:38;100247.51;;;18.73;34.32
72024;BME280;59889;50.700;5.440;2023-12-20T08:22:04;100244.27;;;19.12;34.16
72024;BME280;59889;50.700;5.440;2023-12-20T08:24:29;100248.11;;;19.09;34.54
72024;BME280;59889;50.700;5.440;2023-12-20T08:26:54;100246.43;;;18.88;34.54
72024;BME280;59889;50.700;5.440;2023-12-20T08:29:19;100252.83;;;18.84;35.09
72024;BME280;59889;50.700;5.440;2023-12-20T08:31:45;100258.53;;;18.86;35.25
72024;BME280;59889;50.700;5.440;2023-12-20T08:34:10;100258.88;;;18.69;35.19
72024;BME280;59889;50.700;5.440;2023-12-20T08:36:35;100257.61;;;19.11;35.22
72024;BME280;59889;50.700;5.440;2023-12-20T08:39:01;100260.63;;;18.97;35.15
72024;BME280;59889;50.700;5.440;2023-12-20T08:41:26;100262.39;;;18.82;35.05
72024;BME280;59889;50.700;5.440;2023-12-20T08:43:52;100263.49;;;18.88;34.97
72024;BME280;59889;50.700;5.440;2023-12-20T08:46:18;100264.54;;;18.94;34.86
72024;BME280;59889;50.700;5.440;2023-12-20T08:48:43;100274.59;;;19.09;35.04
72024;BME280;59889;50.700;5.440;2023-12-20T08:51:10;100285.68;;;18.90;35.02
72024;BME280;59889;50.700;5.440;2023-12-20T08:53:35;100284.24;;;19.18;34.96
72024;BME280;59889;50.700;5.440;2023-12-20T08:56:00;100275.13;;;19.07;35.17
72024;BME280;59889;50.700;5.440;2023-12-20T08:58:26;100267.50;;;19.17;35.09
72024;BME280;59889;50.700;5.440;2023-12-20T09:00:51;100259.20;;;18.97;35.09
72024;BME280;59889;50.700;5.440;2023-12-20T09:03:16;100260.04;;;18.90;35.19
72024;BME280;59889;50.700;5.440;2023-12-20T09:05:42;100262.67;;;18.94;35.10
72024;BME280;59889;50.700;5.440;2023-12-20T09:08:07;100255.22;;;19.13;35.17
72024;BME280;59889;50.700;5.440;2023-12-20T09:10:33;100253.62;;;19.21;35.03
72024;BME280;59889;50.700;5.440;2023-12-20T09:12:58;100262.69;;;18.91;35.08
72024;BME280;59889;50.700;5.440;2023-12-20T09:15:24;100258.74;;;19.22;34.96
72024;BME280;59889;50.700;5.440;2023-12-20T09:17:49;100263.44;;;18.97;34.90
72024;BME280;59889;50.700;5.440;2023-12-20T09:20:14;100264.88;;;18.96;34.89
72024;BME280;59889;50.700;5.440;2023-12-20T09:22:39;100260.84;;;19.04;35.09
72024;BME280;59889;50.700;5.440;2023-12-20T09:25:05;100260.61;;;19.13;34.92
72024;BME280;59889;50.700;5.440;2023-12-20T09:27:31;100257.24;;;18.83;34.97
72024;BME280;59889;50.700;5.440;2023-12-20T09:29:56;100261.05;;;19.06;34.96
72024;BME280;59889;50.700;5.440;2023-12-20T09:32:22;100264.19;;;19.04;34.96
72024;BME280;59889;50.700;5.440;2023-12-20T09:34:48;100262.70;;;19.02;34.96
72024;BME280;59889;50.700;5.440;2023-12-20T09:37:13;100254.58;;;19.05;34.85
72024;BME280;59889;50.700;5.440;2023-12-20T09:39:39;100251.38;;;19.01;34.86
72024;BME280;59889;50.700;5.440;2023-12-20T09:42:05;100253.01;;;19.07;34.72
72024;BME280;59889;50.700;5.440;2023-12-20T09:44:30;100252.75;;;18.72;34.79
72024;BME280;59889;50.700;5.440;2023-12-20T09:46:56;100254.73;;;18.86;34.61
72024;BME280;59889;50.700;5.440;2023-12-20T09:49:20;100254.53;;;19.12;34.54
72024;BME280;59889;50.700;5.440;2023-12-20T09:51:46;100254.85;;;19.20;34.42
72024;BME280;59889;50.700;5.440;2023-12-20T09:54:11;100254.77;;;18.86;34.50
72024;BME280;59889;50.700;5.440;2023-12-20T09:56:37;100257.24;;;19.16;34.40
72024;BME280;59889;50.700;5.440;2023-12-20T09:59:02;100261.84;;;18.91;34.40
72024;BME280;59889;50.700;5.440;2023-12-20T10:01:27;100263.65;;;19.06;34.43
72024;BME280;59889;50.700;5.440;2023-12-20T10:03:54;100264.92;;;19.15;34.34
72024;BME280;59889;50.700;5.440;2023-12-20T10:06:18;100264.54;;;18.78;34.44
72024;BME280;59889;50.700;5.440;2023-12-20T10:08:43;100261.68;;;19.06;34.39
72024;BME280;59889;50.700;5.440;2023-12-20T10:11:09;100258.41;;;19.06;34.42
72024;BME280;59889;50.700;5.440;2023-12-20T10:13:33;100253.66;;;18.84;34.36
72024;BME280;59889;50.700;5.440;2023-12-20T10:15:59;100249.89;;;19.04;34.41
72024;BME280;59889;50.700;5.440;2023-12-20T10:18:24;100235.54;;;19.14;34.28
72024;BME280;59889;50.700;5.440;2023-12-20T10:20:49;100227.70;;;19.13;34.30
72024;BME280;59889;50.700;5.440;2023-12-20T10:23:15;100223.78;;;19.15;34.32
72024;BME280;59889;50.700;5.440;2023-12-20T10:25:40;100217.45;;;18.96;34.25
72024;BME280;59889;50.700;5.440;2023-12-20T10:28:09;100220.54;;;18.95;34.29
72024;BME280;59889;50.700;5.440;2023-12-20T10:30:30;100215.63;;;19.14;34.28
72024;BME280;59889;50.700;5.440;2023-12-20T10:32:55;100211.42;;;19.16;34.24
72024;BME280;59889;50.700;5.440;2023-12-20T10:35:21;100207.00;;;18.86;34.31
72024;BME280;59889;50.700;5.440;2023-12-20T10:37:46;100204.61;;;19.11;34.31
72024;BME280;59889;50.700;5.440;2023-12-20T10:40:13;100208.45;;;18.82;34.32
72024;BME280;59889;50.700;5.440;2023-12-20T10:42:37;100210.38;;;19.09;34.28
72024;BME280;59889;50.700;5.440;2023-12-20T10:45:02;100208.40;;;18.83;34.29
72024;BME280;59889;50.700;5.440;2023-12-20T10:47:28;100205.73;;;18.74;34.37
72024;BME280;59889;50.700;5.440;2023-12-20T10:49:52;100202.61;;;19.04;34.33
72024;BME280;59889;50.700;5.440;2023-12-20T10:52:17;100203.51;;;19.00;34.37
72024;BME280;59889;50.700;5.440;2023-12-20T10:54:42;100205.83;;;18.88;34.47
72024;BME280;59889;50.700;5.440;2023-12-20T10:57:07;100202.17;;;18.96;34.37
72024;BME280;59889;50.700;5.440;2023-12-20T10:59:34;100203.78;;;18.96;34.35
72024;BME280;59889;50.700;5.440;2023-12-20T11:01:58;100204.09;;;18.95;34.35
72024;BME280;59889;50.700;5.440;2023-12-20T11:04:28;100202.43;;;18.93;34.38
72024;BME280;59889;50.700;5.440;2023-12-20T11:06:52;100205.55;;;19.02;34.28
72024;BME280;59889;50.700;5.440;2023-12-20T11:09:19;100202.72;;;18.95;34.33
72024;BME280;59889;50.700;5.440;2023-12-20T11:11:52;100198.51;;;18.94;34.33
72024;BME280;59889;50.700;5.440;2023-12-20T11:14:06;100194.32;;;18.88;34.41
72024;BME280;59889;50.700;5.440;2023-12-20T11:16:31;100198.24;;;18.95;34.31
72024;BME280;59889;50.700;5.440;2023-12-20T11:18:54;100192.66;;;18.90;34.34
72024;BME280;59889;50.700;5.440;2023-12-20T11:21:20;100192.10;;;18.72;34.27
72024;BME280;59889;50.700;5.440;2023-12-20T11:23:46;100187.46;;;18.92;34.30
72024;BME280;59889;50.700;5.440;2023-12-20T11:26:11;100182.53;;;18.95;34.29
72024;BME280;59889;50.700;5.440;2023-12-20T11:28:36;100172.82;;;18.92;34.26
72024;BME280;59889;50.700;5.440;2023-12-20T11:31:02;100177.66;;;18.68;34.25
72024;BME280;59889;50.700;5.440;2023-12-20T11:33:30;100171.22;;;18.94;34.23
72024;BME280;59889;50.700;5.440;2023-12-20T11:35:51;100174.28;;;18.94;34.25
72024;BME280;59889;50.700;5.440;2023-12-20T11:38:20;100172.67;;;18.85;34.39
72024;BME280;59889;50.700;5.440;2023-12-20T11:40:42;100173.35;;;18.95;34.21
72024;BME280;59889;50.700;5.440;2023-12-20T11:43:07;100167.79;;;18.66;34.27
72024;BME280;59889;50.700;5.440;2023-12-20T11:45:32;100164.33;;;18.65;34.29
72024;BME280;59889;50.700;5.440;2023-12-20T11:47:57;100159.36;;;18.90;34.26
72024;BME280;59889;50.700;5.440;2023-12-20T11:50:23;100162.66;;;18.90;34.25
72024;BME280;59889;50.700;5.440;2023-12-20T11:52:48;100163.11;;;19.02;34.34
72024;BME280;59889;50.700;5.440;2023-12-20T11:55:13;100156.97;;;18.63;34.26
72024;BME280;59889;50.700;5.440;2023-12-20T11:57:38;100154.52;;;18.90;34.21
72024;BME280;59889;50.700;5.440;2023-12-20T12:00:04;100144.95;;;18.75;34.41
72024;BME280;59889;50.700;5.440;2023-12-20T12:02:28;100137.13;;;18.78;34.32
72024;BME280;59889;50.700;5.440;2023-12-20T12:04:53;100137.50;;;18.78;34.31
72024;BME280;59889;50.700;5.440;2023-12-20T12:07:18;100141.97;;;18.76;34.33
72024;BME280;59889;50.700;5.440;2023-12-20T12:09:44;100140.76;;;18.65;34.51
72024;BME280;59889;50.700;5.440;2023-12-20T12:12:08;100135.18;;;18.69;34.47
72024;BME280;59889;50.700;5.440;2023-12-20T12:14:33;100132.97;;;18.64;34.45
72024;BME280;59889;50.700;5.440;2023-12-20T12:16:58;100129.42;;;18.89;34.47
72024;BME280;59889;50.700;5.440;2023-12-20T12:19:26;100129.79;;;18.73;34.39
72024;BME280;59889;50.700;5.440;2023-12-20T12:21:49;100130.67;;;18.73;34.39
72024;BME280;59889;50.700;5.440;2023-12-20T12:24:15;100131.56;;;18.64;34.51
72024;BME280;59889;50.700;5.440;2023-12-20T12:26:40;100127.40;;;18.97;34.39
72024;BME280;59889;50.700;5.440;2023-12-20T12:29:07;100121.20;;;18.75;34.33
72024;BME280;59889;50.700;5.440;2023-12-20T12:31:30;100118.03;;;18.75;34.34
72024;BME280;59889;50.700;5.440;2023-12-20T12:33:55;100112.12;;;18.75;34.32
72024;BME280;59889;50.700;5.440;2023-12-20T12:36:20;100109.11;;;18.67;34.40
72024;BME280;59889;50.700;5.440;2023-12-20T12:38:45;100106.99;;;18.73;34.35